Fitler, Mississippi
Current Conditions -  °F | °C
As of 1:53 AM on Monday 26 Jan 2015 (Local Time) from KTVR Reporting Station
Clear Clear  
Wind Chill: 43°   Ceiling: Unl
Heat Index: 47°   Visibility: 10mi
Dew Point: 33°   Wind: 8mph
Humidity: 59%   Direction: 330°NNW
Pressure: 30.05"   Gusts: NA
Location:  32.8112°N, 90.8327°W
Report Text: KTVR 260753Z AUTO 33007KT 10SM CLR 08/01 A3005 RMK AO2 SLP182 T00830006
Loading
Personal Weather Stations






























Interactive Weather Map New forecast layout! Learn more

10-Day Weather Forecast

Advertisements
Track Severe Weather on mobile